createdAt,value
2023-08-14T00:01:20.749Z,16.50
2023-08-14T00:03:44.016Z,16.40
2023-08-14T00:06:08.651Z,16.40
2023-08-14T00:08:31.856Z,16.40
2023-08-14T00:10:55.654Z,16.40
2023-08-14T00:13:22.890Z,16.30
2023-08-14T00:15:46.193Z,16.30
2023-08-14T00:18:09.657Z,16.30
2023-08-14T00:20:33.030Z,16.20
2023-08-14T00:22:57.698Z,16.30
2023-08-14T00:25:20.874Z,16.20
2023-08-14T00:27:44.121Z,16.20
2023-08-14T00:30:08.794Z,16.20
2023-08-14T00:32:32.021Z,16.10
2023-08-14T00:34:55.444Z,16.10
2023-08-14T00:37:18.595Z,16.10
2023-08-14T00:39:43.157Z,16.10
2023-08-14T00:42:07.960Z,16.10
2023-08-14T00:44:31.679Z,16.00
2023-08-14T00:46:55.010Z,16.10
2023-08-14T00:49:18.537Z,16.00
2023-08-14T00:51:41.804Z,16.00
2023-08-14T00:54:05.788Z,16.00
2023-08-14T00:56:31.333Z,16.00
2023-08-14T00:58:54.731Z,16.00
2023-08-14T01:01:18.277Z,16.10
2023-08-14T01:03:42.115Z,16.00
2023-08-14T01:06:05.391Z,16.00
2023-08-14T01:08:28.923Z,16.00
2023-08-14T01:11:01.119Z,16.00
2023-08-14T01:13:33.840Z,15.90
2023-08-14T01:16:00.688Z,15.90
2023-08-14T01:18:25.185Z,15.90
2023-08-14T01:21:04.613Z,15.90
2023-08-14T01:23:35.550Z,15.90
2023-08-14T01:26:00.460Z,15.90
2023-08-14T01:28:23.924Z,15.90
2023-08-14T01:30:47.557Z,15.90
2023-08-14T01:33:10.880Z,15.90
2023-08-14T01:35:41.906Z,15.80
2023-08-14T01:38:11.444Z,15.70
2023-08-14T01:40:42.451Z,15.70
2023-08-14T01:43:14.588Z,15.70
2023-08-14T01:45:39.216Z,15.70
2023-08-14T01:48:04.725Z,15.70
2023-08-14T01:50:31.560Z,15.60
2023-08-14T01:52:55.045Z,15.60
2023-08-14T01:55:18.268Z,15.60
2023-08-14T01:57:41.487Z,15.60
2023-08-14T02:00:10.919Z,15.70
2023-08-14T02:02:37.241Z,15.70
2023-08-14T02:05:24.921Z,15.60
2023-08-14T02:07:48.146Z,15.60
2023-08-14T02:10:11.896Z,15.60
2023-08-14T02:12:35.183Z,15.50
2023-08-14T02:14:58.526Z,15.50
2023-08-14T02:17:23.538Z,15.60
2023-08-14T02:19:46.748Z,15.50
2023-08-14T02:22:09.933Z,15.50
2023-08-14T02:24:33.416Z,15.50
2023-08-14T02:26:56.687Z,15.50
2023-08-14T02:29:20.349Z,15.50
2023-08-14T02:31:46.699Z,15.50
2023-08-14T02:34:11.314Z,15.50
2023-08-14T02:36:34.565Z,15.50
2023-08-14T02:38:57.860Z,15.40
2023-08-14T02:41:21.277Z,15.40
2023-08-14T02:43:44.693Z,15.30
2023-08-14T02:46:08.017Z,15.30
2023-08-14T02:48:31.239Z,15.40
2023-08-14T02:50:55.887Z,15.40
2023-08-14T02:53:19.093Z,15.40
2023-08-14T02:55:42.310Z,15.30
2023-08-14T02:58:05.801Z,15.30
2023-08-14T03:00:29.529Z,15.30
2023-08-14T03:02:52.921Z,15.30
2023-08-14T03:05:16.228Z,15.30
2023-08-14T03:07:40.890Z,15.30
2023-08-14T03:10:04.504Z,15.20
2023-08-14T03:12:27.783Z,15.10
2023-08-14T03:14:50.970Z,15.20
2023-08-14T03:17:14.491Z,15.20
2023-08-14T03:19:37.758Z,15.20
2023-08-14T03:22:00.973Z,15.20
2023-08-14T03:24:25.561Z,15.10
2023-08-14T03:26:51.093Z,15.10
2023-08-14T03:29:14.970Z,15.10
2023-08-14T03:31:38.415Z,15.20
2023-08-14T03:34:01.790Z,15.20
2023-08-14T03:36:25.260Z,15.20
2023-08-14T03:38:48.482Z,15.10
2023-08-14T03:41:13.405Z,15.00
2023-08-14T03:43:36.717Z,15.00
2023-08-14T03:46:00.043Z,15.00
2023-08-14T03:48:23.303Z,15.00
2023-08-14T03:50:48.545Z,15.10
2023-08-14T03:53:11.845Z,15.10
2023-08-14T03:55:35.015Z,15.00
2023-08-14T03:57:59.580Z,15.00
2023-08-14T04:00:23.030Z,15.00
2023-08-14T04:02:46.625Z,14.90
2023-08-14T04:05:10.247Z,14.90
2023-08-14T04:07:33.667Z,15.00
2023-08-14T04:09:56.876Z,15.00
2023-08-14T04:12:21.082Z,14.90
2023-08-14T04:14:46.519Z,14.90
2023-08-14T04:17:09.987Z,15.00
2023-08-14T04:19:33.197Z,14.90
2023-08-14T04:21:56.448Z,14.80
2023-08-14T04:24:19.732Z,14.90
2023-08-14T04:26:43.443Z,15.00
2023-08-14T04:29:10.082Z,14.90
2023-08-14T04:31:35.233Z,14.90
2023-08-14T04:33:58.649Z,14.90
2023-08-14T04:36:22.015Z,14.90
2023-08-14T04:38:45.244Z,15.00
2023-08-14T04:41:08.483Z,14.90
2023-08-14T04:43:32.861Z,15.00
2023-08-14T04:45:56.270Z,15.00
2023-08-14T04:48:20.934Z,15.00
2023-08-14T04:50:44.436Z,15.00
2023-08-14T04:53:09.979Z,15.00
2023-08-14T04:55:35.893Z,14.90
2023-08-14T04:57:59.301Z,14.80
2023-08-14T05:00:23.195Z,14.90
2023-08-14T05:02:46.646Z,15.00
2023-08-14T05:05:11.444Z,15.00
2023-08-14T05:07:34.701Z,15.00
2023-08-14T05:09:58.102Z,15.10
2023-08-14T05:12:21.399Z,15.10
2023-08-14T05:14:44.642Z,15.20
2023-08-14T05:17:08.337Z,15.20
2023-08-14T05:19:31.619Z,15.30
2023-08-14T05:21:56.313Z,15.40
2023-08-14T05:24:19.537Z,15.50
2023-08-14T05:26:42.856Z,15.50
2023-08-14T05:29:06.180Z,15.60
2023-08-14T05:31:29.477Z,15.60
2023-08-14T05:33:52.829Z,15.70
2023-08-14T05:36:16.113Z,15.90
2023-08-14T05:38:40.626Z,16.00
2023-08-14T05:41:03.849Z,16.20
2023-08-14T05:43:27.328Z,16.40
2023-08-14T05:45:51.578Z,16.50
2023-08-14T05:48:16.088Z,16.60
2023-08-14T05:50:39.541Z,16.60
2023-08-14T05:53:06.006Z,16.80
2023-08-14T05:55:30.576Z,16.90
2023-08-14T05:57:54.069Z,16.90
2023-08-14T06:00:18.657Z,17.00
2023-08-14T06:02:41.945Z,17.00
2023-08-14T06:05:06.110Z,17.00
2023-08-14T06:07:29.350Z,17.20
2023-08-14T06:09:52.551Z,17.10
2023-08-14T06:12:18.806Z,17.10
2023-08-14T06:14:42.308Z,17.20
2023-08-14T06:17:05.559Z,17.30
2023-08-14T06:19:28.815Z,17.40
2023-08-14T06:21:52.000Z,17.40
2023-08-14T06:24:15.207Z,17.40
2023-08-14T06:26:38.612Z,17.50
2023-08-14T06:29:03.166Z,17.50
2023-08-14T06:31:26.526Z,17.50
2023-08-14T06:33:51.179Z,17.50
2023-08-14T06:36:15.563Z,17.50
2023-08-14T06:38:38.988Z,17.60
2023-08-14T06:41:02.223Z,17.70
2023-08-14T06:43:25.759Z,17.80
2023-08-14T06:45:50.308Z,18.00
2023-08-14T06:48:13.567Z,18.00
2023-08-14T06:50:36.788Z,18.10
2023-08-14T06:52:59.996Z,18.20
2023-08-14T06:55:23.421Z,18.30
2023-08-14T06:57:46.615Z,18.30
2023-08-14T07:00:14.896Z,18.20
2023-08-14T07:02:39.519Z,18.30
2023-08-14T07:05:03.936Z,18.30
2023-08-14T07:07:27.098Z,18.30
2023-08-14T07:09:50.596Z,18.30
2023-08-14T07:12:13.869Z,18.30
2023-08-14T07:14:37.161Z,18.40
2023-08-14T07:17:00.448Z,18.40
2023-08-14T07:19:25.093Z,18.30
2023-08-14T07:21:48.369Z,18.30
2023-08-14T07:24:13.507Z,18.40
2023-08-14T07:26:36.770Z,18.30
2023-08-14T07:28:59.968Z,18.50
2023-08-14T07:31:23.849Z,18.50
2023-08-14T07:33:47.247Z,18.50
2023-08-14T07:36:11.905Z,18.60
2023-08-14T07:38:35.073Z,18.70
2023-08-14T07:40:58.730Z,18.70
2023-08-14T07:43:22.205Z,18.80
2023-08-14T07:45:45.584Z,18.80
2023-08-14T07:48:08.875Z,18.80
2023-08-14T07:50:32.149Z,18.80
2023-08-14T07:52:56.755Z,18.90
2023-08-14T07:55:20.065Z,19.00
2023-08-14T07:57:46.977Z,19.60
2023-08-14T08:00:12.529Z,19.90
2023-08-14T08:02:36.418Z,19.70
2023-08-14T08:04:59.582Z,19.60
2023-08-14T08:07:25.840Z,20.20
2023-08-14T08:09:50.723Z,20.30
2023-08-14T08:12:14.052Z,20.50
2023-08-14T08:14:38.295Z,20.80
2023-08-14T08:17:01.528Z,20.80
2023-08-14T08:19:24.790Z,20.80
2023-08-14T08:21:47.996Z,21.30
2023-08-14T08:24:11.565Z,21.30
2023-08-14T08:26:36.304Z,21.50
2023-08-14T08:28:59.517Z,21.60
2023-08-14T08:31:22.923Z,21.40
2023-08-14T08:33:46.153Z,21.20
2023-08-14T08:36:09.416Z,21.90
2023-08-14T08:38:32.608Z,22.10
2023-08-14T08:40:56.081Z,22.30
2023-08-14T08:43:21.613Z,22.10
2023-08-14T08:45:51.160Z,22.10
2023-08-14T08:48:15.359Z,22.20
2023-08-14T08:50:39.603Z,22.70
2023-08-14T08:53:05.329Z,23.30
2023-08-14T08:55:30.015Z,23.00
2023-08-14T08:57:57.979Z,22.60
2023-08-14T09:00:25.765Z,22.80
2023-08-14T09:02:51.911Z,23.40
2023-08-14T09:05:15.625Z,23.50
2023-08-14T09:07:38.878Z,23.70
2023-08-14T09:10:02.455Z,24.00
2023-08-14T09:12:26.000Z,23.30
2023-08-14T09:15:05.352Z,22.90
2023-08-14T09:17:30.436Z,24.20
2023-08-14T09:19:53.631Z,24.50
2023-08-14T09:22:16.862Z,24.20
2023-08-14T09:24:40.172Z,24.00
2023-08-14T09:27:04.342Z,24.90
2023-08-14T09:29:28.233Z,24.80
2023-08-14T09:31:54.356Z,24.20
2023-08-14T09:34:19.707Z,24.70
2023-08-14T09:36:43.359Z,25.00
2023-08-14T09:39:07.475Z,25.50
2023-08-14T09:41:33.199Z,25.40
2023-08-14T09:43:56.421Z,25.30
2023-08-14T09:46:21.247Z,25.00
2023-08-14T09:48:47.392Z,24.70
2023-08-14T09:51:17.475Z,25.10
2023-08-14T09:53:46.631Z,25.50
2023-08-14T09:56:10.396Z,25.40
2023-08-14T09:58:33.639Z,25.60
2023-08-14T10:00:57.000Z,25.90
2023-08-14T10:03:22.748Z,26.00
2023-08-14T10:05:46.352Z,26.00
2023-08-14T10:08:12.237Z,25.90
2023-08-14T10:10:36.617Z,26.00
2023-08-14T10:13:05.668Z,25.60
2023-08-14T10:15:34.800Z,25.60
2023-08-14T10:18:00.734Z,25.90
2023-08-14T10:20:23.592Z,25.10
2023-08-14T10:22:48.689Z,25.20
2023-08-14T10:25:14.857Z,25.50
2023-08-14T10:27:38.806Z,26.10
2023-08-14T10:30:03.208Z,25.50
2023-08-14T10:32:27.144Z,26.10
2023-08-14T10:34:51.274Z,25.80
2023-08-14T10:37:28.236Z,25.90
2023-08-14T10:39:51.446Z,25.90
2023-08-14T10:42:18.246Z,26.40
2023-08-14T10:44:46.090Z,25.80
2023-08-14T10:47:13.395Z,26.10
2023-08-14T10:49:45.839Z,26.10
2023-08-14T10:52:09.039Z,25.70
2023-08-14T10:54:39.162Z,25.40
2023-08-14T10:57:02.515Z,25.30
2023-08-14T10:59:29.375Z,25.10
2023-08-14T11:02:06.167Z,25.80
2023-08-14T11:04:29.380Z,25.30
2023-08-14T11:07:13.203Z,26.50
2023-08-14T11:09:38.272Z,26.80
2023-08-14T11:12:06.612Z,26.70
2023-08-14T11:14:31.336Z,26.40
2023-08-14T11:16:54.598Z,26.50
2023-08-14T11:19:20.128Z,26.50
2023-08-14T11:21:43.407Z,27.00
2023-08-14T11:24:12.445Z,26.80
2023-08-14T11:26:35.680Z,27.00
2023-08-14T11:29:00.261Z,27.00
2023-08-14T11:31:31.023Z,27.20
2023-08-14T11:33:57.932Z,26.10
2023-08-14T11:36:21.434Z,27.00
2023-08-14T11:38:44.848Z,27.30
2023-08-14T11:41:08.675Z,26.40
2023-08-14T11:43:31.890Z,26.30
2023-08-14T11:45:55.980Z,26.80
2023-08-14T11:48:21.528Z,26.90
2023-08-14T11:50:49.173Z,26.70
2023-08-14T11:53:12.831Z,26.90
2023-08-14T11:55:36.180Z,27.40
2023-08-14T11:58:02.245Z,27.10
2023-08-14T12:00:30.145Z,27.50
2023-08-14T12:02:58.155Z,27.00
2023-08-14T12:05:23.426Z,27.20
2023-08-14T12:07:46.646Z,27.00
2023-08-14T12:10:11.452Z,27.00
2023-08-14T12:12:36.476Z,26.50
2023-08-14T12:15:01.473Z,26.50
2023-08-14T12:17:25.212Z,26.80
2023-08-14T12:19:53.372Z,27.40
2023-08-14T12:22:17.982Z,27.30
2023-08-14T12:24:43.081Z,26.80
2023-08-14T12:27:06.533Z,26.90
2023-08-14T12:29:30.998Z,27.10
2023-08-14T12:31:54.336Z,27.60
2023-08-14T12:34:19.262Z,27.40
2023-08-14T12:36:42.490Z,27.90
2023-08-14T12:39:07.421Z,27.80
2023-08-14T12:41:30.820Z,27.50
2023-08-14T12:43:54.254Z,26.90
2023-08-14T12:46:17.605Z,27.20
2023-08-14T12:48:40.816Z,27.70
2023-08-14T12:51:04.698Z,27.40
2023-08-14T12:53:27.882Z,27.40
2023-08-14T12:56:02.632Z,27.00
2023-08-14T12:58:27.115Z,26.70
2023-08-14T13:00:50.305Z,27.00
2023-08-14T13:03:13.544Z,26.60
2023-08-14T13:05:36.736Z,26.30
2023-08-14T13:08:00.467Z,26.00
2023-08-14T13:10:23.717Z,26.50
2023-08-14T13:12:48.516Z,27.40
2023-08-14T13:15:12.292Z,27.50
2023-08-14T13:17:35.566Z,27.60
2023-08-14T13:19:58.811Z,27.70
2023-08-14T13:22:22.002Z,28.00
2023-08-14T13:24:45.385Z,28.00
2023-08-14T13:27:09.903Z,27.70
2023-08-14T13:29:35.045Z,27.50
2023-08-14T13:31:58.261Z,27.20
2023-08-14T13:34:21.485Z,27.00
2023-08-14T13:36:44.752Z,27.70
2023-08-14T13:39:08.366Z,27.80
2023-08-14T13:41:31.703Z,28.00
2023-08-14T13:43:54.931Z,27.70
2023-08-14T13:46:19.461Z,27.60
2023-08-14T13:48:45.569Z,27.70
2023-08-14T13:51:09.098Z,27.70
2023-08-14T13:53:32.278Z,27.50
2023-08-14T13:55:55.490Z,27.50
2023-08-14T13:58:18.691Z,27.60
2023-08-14T14:00:42.023Z,27.40
2023-08-14T14:03:07.060Z,27.80
2023-08-14T14:05:30.665Z,28.00
2023-08-14T14:07:56.484Z,28.10
2023-08-14T14:10:20.873Z,28.10
2023-08-14T14:12:59.708Z,28.00
2023-08-14T14:15:24.972Z,27.90
2023-08-14T14:17:48.239Z,28.10
2023-08-14T14:20:13.342Z,28.00
2023-08-14T14:22:36.530Z,28.00
2023-08-14T14:24:59.712Z,27.60
2023-08-14T14:27:22.915Z,27.90
2023-08-14T14:29:46.101Z,27.60
2023-08-14T14:32:09.283Z,28.00
2023-08-14T14:34:32.468Z,28.00
2023-08-14T14:36:57.077Z,28.00
2023-08-14T14:39:20.400Z,28.00
2023-08-14T14:41:44.121Z,27.60
2023-08-14T14:44:08.120Z,27.70
2023-08-14T14:46:31.367Z,27.80
2023-08-14T14:48:54.685Z,27.90
2023-08-14T14:51:17.966Z,27.90
2023-08-14T14:53:42.473Z,27.90
2023-08-14T14:56:06.272Z,28.10
2023-08-14T14:58:29.898Z,28.10
2023-08-14T15:00:53.639Z,28.10
2023-08-14T15:03:16.883Z,28.00
2023-08-14T15:05:40.072Z,28.00
2023-08-14T15:08:03.590Z,28.20
2023-08-14T15:10:30.749Z,28.30
2023-08-14T15:12:56.445Z,28.30
2023-08-14T15:15:19.827Z,28.50
2023-08-14T15:17:44.898Z,28.60
2023-08-14T15:20:11.207Z,28.20
2023-08-14T15:22:34.387Z,28.40
2023-08-14T15:25:00.878Z,28.20
2023-08-14T15:27:25.482Z,28.30
2023-08-14T15:29:48.681Z,28.50
2023-08-14T15:32:11.891Z,28.50
2023-08-14T15:34:35.257Z,28.40
2023-08-14T15:36:58.453Z,28.40
2023-08-14T15:39:21.638Z,28.00
2023-08-14T15:41:44.957Z,27.70
2023-08-14T15:44:09.658Z,27.90
2023-08-14T15:46:32.859Z,27.60
2023-08-14T15:48:56.164Z,27.40
2023-08-14T15:51:19.831Z,27.50
2023-08-14T15:53:43.057Z,27.80
2023-08-14T15:56:06.422Z,27.80
2023-08-14T15:58:29.668Z,27.50
2023-08-14T16:00:54.829Z,27.70
2023-08-14T16:03:18.030Z,27.70
2023-08-14T16:05:41.449Z,27.70
2023-08-14T16:08:05.282Z,27.50
2023-08-14T16:10:28.947Z,27.40
2023-08-14T16:12:52.307Z,27.30
2023-08-14T16:15:15.480Z,27.40
2023-08-14T16:17:43.093Z,27.10
2023-08-14T16:20:07.547Z,26.90
2023-08-14T16:22:30.748Z,26.90
2023-08-14T16:24:53.995Z,27.00
2023-08-14T16:27:17.229Z,27.00
2023-08-14T16:29:40.458Z,27.00
2023-08-14T16:32:03.629Z,27.10
2023-08-14T16:34:28.140Z,27.10
2023-08-14T16:36:51.353Z,26.80
2023-08-14T16:39:16.173Z,26.70
2023-08-14T16:41:40.841Z,26.90
2023-08-14T16:44:04.403Z,26.80
2023-08-14T16:46:27.741Z,26.70
2023-08-14T16:48:50.961Z,26.60
2023-08-14T16:51:15.589Z,26.60
2023-08-14T16:53:39.073Z,26.50
2023-08-14T16:56:02.404Z,26.40
2023-08-14T16:58:25.733Z,26.30
2023-08-14T17:00:49.195Z,26.40
2023-08-14T17:03:12.451Z,26.30
2023-08-14T17:05:35.687Z,26.30
2023-08-14T17:08:00.232Z,26.30
2023-08-14T17:10:23.382Z,26.30
2023-08-14T17:12:46.693Z,26.30
2023-08-14T17:15:12.880Z,26.40
2023-08-14T17:17:36.194Z,26.30
2023-08-14T17:19:59.450Z,26.30
2023-08-14T17:22:22.623Z,26.30
2023-08-14T17:24:47.203Z,26.30
2023-08-14T17:27:10.375Z,26.30
2023-08-14T17:29:36.099Z,26.20
2023-08-14T17:31:59.263Z,26.20
2023-08-14T17:34:22.779Z,26.10
2023-08-14T17:36:46.036Z,26.10
2023-08-14T17:39:10.103Z,26.00
2023-08-14T17:41:34.876Z,26.00
2023-08-14T17:43:58.029Z,26.00
2023-08-14T17:46:21.662Z,26.00
2023-08-14T17:48:45.091Z,26.00
2023-08-14T17:51:08.341Z,25.90
2023-08-14T17:53:32.570Z,25.80
2023-08-14T17:55:55.742Z,25.80
2023-08-14T17:58:20.495Z,25.80
2023-08-14T18:00:48.648Z,25.80
2023-08-14T18:03:11.965Z,25.80
2023-08-14T18:05:35.526Z,25.80
2023-08-14T18:07:58.725Z,25.70
2023-08-14T18:10:22.208Z,25.70
2023-08-14T18:12:45.443Z,25.60
2023-08-14T18:15:11.175Z,25.60
2023-08-14T18:17:34.377Z,25.70
2023-08-14T18:19:57.559Z,25.70
2023-08-14T18:22:20.758Z,25.70
2023-08-14T18:24:44.440Z,25.70
2023-08-14T18:27:07.846Z,25.70
2023-08-14T18:29:31.034Z,25.70
2023-08-14T18:31:56.130Z,25.60
2023-08-14T18:34:19.484Z,25.60
2023-08-14T18:36:42.697Z,25.50
2023-08-14T18:39:06.418Z,25.40
2023-08-14T18:41:29.668Z,25.40
2023-08-14T18:43:52.824Z,25.40
2023-08-14T18:46:16.214Z,25.30
2023-08-14T18:48:40.842Z,25.30
2023-08-14T18:51:04.112Z,25.30
2023-08-14T18:53:27.997Z,25.20
2023-08-14T18:55:51.201Z,25.10
2023-08-14T18:58:16.169Z,25.10
2023-08-14T19:00:39.386Z,25.00
2023-08-14T19:03:02.596Z,24.90
2023-08-14T19:05:27.162Z,24.70
2023-08-14T19:07:50.354Z,24.60
2023-08-14T19:10:13.512Z,24.60
2023-08-14T19:12:36.708Z,24.60
2023-08-14T19:14:59.852Z,24.60
2023-08-14T19:17:23.787Z,24.70
2023-08-14T19:19:48.014Z,24.60
2023-08-14T19:22:16.760Z,24.60
2023-08-14T19:24:40.050Z,24.60
2023-08-14T19:27:03.287Z,24.60
2023-08-14T19:29:26.503Z,24.50
2023-08-14T19:31:49.795Z,24.60
2023-08-14T19:34:13.276Z,24.60
2023-08-14T19:36:36.484Z,24.60
2023-08-14T19:39:01.092Z,24.60
2023-08-14T19:41:24.723Z,24.40
2023-08-14T19:43:47.920Z,24.30
2023-08-14T19:46:11.129Z,24.20
2023-08-14T19:48:34.721Z,24.20
2023-08-14T19:50:58.449Z,24.30
2023-08-14T19:53:21.644Z,24.30
2023-08-14T19:55:46.448Z,24.20
2023-08-14T19:58:09.633Z,24.10
2023-08-14T20:00:33.156Z,24.10
2023-08-14T20:02:56.640Z,24.00
2023-08-14T20:05:19.841Z,23.90
2023-08-14T20:07:43.040Z,23.90
2023-08-14T20:10:07.936Z,23.90
2023-08-14T20:12:32.750Z,23.80
2023-08-14T20:14:56.144Z,23.80
2023-08-14T20:17:19.671Z,23.80
2023-08-14T20:19:43.127Z,23.80
2023-08-14T20:22:06.485Z,23.80
2023-08-14T20:24:29.603Z,23.80
2023-08-14T20:26:52.825Z,23.70
2023-08-14T20:29:17.614Z,23.80
2023-08-14T20:31:40.944Z,23.80
2023-08-14T20:34:04.177Z,23.60
2023-08-14T20:36:28.044Z,23.60
2023-08-14T20:38:51.230Z,23.60
2023-08-14T20:41:14.524Z,23.50
2023-08-14T20:43:37.732Z,23.50
2023-08-14T20:46:02.305Z,23.50
2023-08-14T20:48:25.527Z,23.50
2023-08-14T20:50:49.319Z,23.50
2023-08-14T20:53:14.083Z,23.40
2023-08-14T20:55:41.870Z,23.40
2023-08-14T20:58:05.514Z,23.40
2023-08-14T21:00:28.713Z,23.30
2023-08-14T21:02:53.965Z,23.20
2023-08-14T21:05:17.899Z,23.20
2023-08-14T21:07:41.155Z,23.20
2023-08-14T21:10:05.051Z,23.20
2023-08-14T21:12:28.433Z,23.10
2023-08-14T21:14:51.618Z,23.10
2023-08-14T21:17:14.776Z,23.10
2023-08-14T21:19:39.583Z,23.10
2023-08-14T21:22:02.758Z,23.00
2023-08-14T21:24:25.958Z,23.10
2023-08-14T21:26:49.136Z,23.00
2023-08-14T21:29:12.734Z,23.00
2023-08-14T21:31:35.954Z,22.90
2023-08-14T21:33:59.142Z,22.80
2023-08-14T21:36:23.722Z,22.80
2023-08-14T21:38:46.933Z,22.80
2023-08-14T21:41:10.325Z,22.80
2023-08-14T21:43:35.256Z,22.80
2023-08-14T21:45:58.836Z,22.70
2023-08-14T21:48:22.186Z,22.70
2023-08-14T21:50:45.356Z,22.60
2023-08-14T21:53:09.909Z,22.60
2023-08-14T21:55:33.131Z,22.50
2023-08-14T21:57:56.329Z,22.50
2023-08-14T22:00:19.683Z,22.60
2023-08-14T22:02:43.098Z,22.50
2023-08-14T22:05:07.928Z,22.70
2023-08-14T22:07:31.159Z,22.60
2023-08-14T22:09:56.049Z,22.60
2023-08-14T22:12:19.296Z,22.60
2023-08-14T22:14:44.888Z,22.60
2023-08-14T22:17:08.281Z,22.60
2023-08-14T22:19:31.502Z,22.70
2023-08-14T22:21:54.694Z,22.70
2023-08-14T22:24:34.581Z,22.60
2023-08-14T22:27:02.650Z,22.50
2023-08-14T22:29:25.824Z,22.50
2023-08-14T22:31:48.079Z,22.50
2023-08-14T22:34:11.268Z,22.50
2023-08-14T22:36:34.547Z,22.50
2023-08-14T22:38:57.738Z,22.40
2023-08-14T22:41:20.984Z,22.30
2023-08-14T22:43:45.566Z,22.40
2023-08-14T22:46:08.857Z,22.30
2023-08-14T22:48:32.047Z,22.30
2023-08-14T22:50:55.235Z,22.10
2023-08-14T22:53:19.662Z,22.10
2023-08-14T22:55:42.804Z,22.00
2023-08-14T22:58:06.326Z,21.90
2023-08-14T23:00:30.973Z,22.00
2023-08-14T23:02:56.125Z,22.00
2023-08-14T23:05:19.567Z,21.80
2023-08-14T23:07:42.776Z,21.90
2023-08-14T23:10:07.664Z,21.80
2023-08-14T23:12:31.009Z,21.70
2023-08-14T23:14:57.264Z,21.70
2023-08-14T23:17:22.079Z,21.80
2023-08-14T23:19:45.902Z,21.70
2023-08-14T23:22:09.187Z,21.60
2023-08-14T23:24:32.399Z,21.60
2023-08-14T23:26:55.626Z,21.50
2023-08-14T23:29:18.786Z,21.40
2023-08-14T23:31:41.983Z,21.40
2023-08-14T23:34:06.922Z,21.40
2023-08-14T23:36:30.839Z,21.30
2023-08-14T23:38:54.026Z,21.20
2023-08-14T23:41:17.241Z,21.20
2023-08-14T23:43:40.490Z,21.20
2023-08-14T23:46:04.060Z,21.10
2023-08-14T23:48:27.362Z,21.00
2023-08-14T23:50:51.907Z,21.10
2023-08-14T23:53:15.145Z,21.00
2023-08-14T23:55:38.359Z,21.00
2023-08-14T23:58:01.644Z,21.00
